sensor_id;sensor_type;location;lat;lon;timestamp;pressure;altitude;pressure_sealevel;temperature;humidity
35551;BME280;21655;46.056;13.616;2023-05-24T00:02:22;100158.50;;;17.56;100.00
35551;BME280;21655;46.056;13.616;2023-05-24T00:04:51;100160.69;;;17.54;100.00
35551;BME280;21655;46.056;13.616;2023-05-24T00:07:17;100154.22;;;17.54;100.00
35551;BME280;21655;46.056;13.616;2023-05-24T00:09:43;100154.56;;;17.39;100.00
35551;BME280;21655;46.056;13.616;2023-05-24T00:12:08;100152.41;;;17.41;100.00
35551;BME280;21655;46.056;13.616;2023-05-24T00:14:33;100151.25;;;17.49;100.00
35551;BME280;21655;46.056;13.616;2023-05-24T00:16:59;100155.41;;;17.46;100.00
35551;BME280;21655;46.056;13.616;2023-05-24T00:19:24;100150.97;;;17.32;100.00
35551;BME280;21655;46.056;13.616;2023-05-24T00:21:51;100149.03;;;17.26;100.00
35551;BME280;21655;46.056;13.616;2023-05-24T00:24:17;100160.81;;;17.41;100.00
35551;BME280;21655;46.056;13.616;2023-05-24T00:26:43;100154.53;;;17.46;100.00
35551;BME280;21655;46.056;13.616;2023-05-24T00:29:08;100158.94;;;17.29;100.00
35551;BME280;21655;46.056;13.616;2023-05-24T00:31:34;100159.34;;;17.39;100.00
35551;BME280;21655;46.056;13.616;2023-05-24T00:33:59;100165.63;;;17.34;100.00
35551;BME280;21655;46.056;13.616;2023-05-24T00:36:25;100153.75;;;17.39;100.00
35551;BME280;21655;46.056;13.616;2023-05-24T00:38:50;100153.13;;;17.30;100.00
35551;BME280;21655;46.056;13.616;2023-05-24T00:41:17;100151.63;;;17.34;100.00
35551;BME280;21655;46.056;13.616;2023-05-24T00:43:42;100153.13;;;17.30;100.00
35551;BME280;21655;46.056;13.616;2023-05-24T00:46:29;100159.38;;;17.32;100.00
35551;BME280;21655;46.056;13.616;2023-05-24T00:48:55;100159.16;;;17.27;100.00
35551;BME280;21655;46.056;13.616;2023-05-24T00:51:22;100163.69;;;17.28;100.00
35551;BME280;21655;46.056;13.616;2023-05-24T00:53:48;100168.09;;;17.18;100.00
35551;BME280;21655;46.056;13.616;2023-05-24T00:56:15;100164.13;;;17.01;100.00
35551;BME280;21655;46.056;13.616;2023-05-24T00:58:41;100167.78;;;17.02;100.00
35551;BME280;21655;46.056;13.616;2023-05-24T01:01:07;100169.81;;;17.19;100.00
35551;BME280;21655;46.056;13.616;2023-05-24T01:03:33;100173.88;;;17.23;100.00
35551;BME280;21655;46.056;13.616;2023-05-24T01:06:03;100164.78;;;17.27;100.00
35551;BME280;21655;46.056;13.616;2023-05-24T01:14:28;100157.75;;;17.18;100.00
35551;BME280;21655;46.056;13.616;2023-05-24T01:16:41;100163.81;;;17.15;100.00
35551;BME280;21655;46.056;13.616;2023-05-24T01:22:12;100165.56;;;17.10;100.00
35551;BME280;21655;46.056;13.616;2023-05-24T01:27:26;100175.91;;;17.09;100.00
35551;BME280;21655;46.056;13.616;2023-05-24T01:29:52;100166.66;;;17.09;100.00
35551;BME280;21655;46.056;13.616;2023-05-24T01:32:18;100168.47;;;16.97;100.00
35551;BME280;21655;46.056;13.616;2023-05-24T01:34:44;100179.09;;;16.89;100.00
35551;BME280;21655;46.056;13.616;2023-05-24T01:37:10;100168.00;;;17.00;100.00
35551;BME280;21655;46.056;13.616;2023-05-24T01:39:35;100179.22;;;17.00;100.00
35551;BME280;21655;46.056;13.616;2023-05-24T01:50:03;100180.72;;;17.02;100.00
35551;BME280;21655;46.056;13.616;2023-05-24T01:52:32;100182.44;;;17.03;100.00
35551;BME280;21655;46.056;13.616;2023-05-24T01:54:59;100180.53;;;16.98;100.00
35551;BME280;21655;46.056;13.616;2023-05-24T01:57:26;100182.25;;;16.99;100.00
35551;BME280;21655;46.056;13.616;2023-05-24T01:59:53;100186.31;;;17.02;100.00
35551;BME280;21655;46.056;13.616;2023-05-24T02:02:19;100181.34;;;17.04;100.00
35551;BME280;21655;46.056;13.616;2023-05-24T02:04:45;100178.09;;;17.07;100.00
35551;BME280;21655;46.056;13.616;2023-05-24T02:07:10;100184.94;;;17.11;100.00
35551;BME280;21655;46.056;13.616;2023-05-24T02:09:35;100184.72;;;17.13;100.00
35551;BME280;21655;46.056;13.616;2023-05-24T02:12:01;100184.72;;;17.13;100.00
35551;BME280;21655;46.056;13.616;2023-05-24T02:14:26;100189.91;;;17.09;100.00
35551;BME280;21655;46.056;13.616;2023-05-24T02:16:52;100186.50;;;17.07;100.00
35551;BME280;21655;46.056;13.616;2023-05-24T02:19:23;100178.91;;;17.14;100.00
35551;BME280;21655;46.056;13.616;2023-05-24T02:21:48;100183.44;;;17.15;100.00
35551;BME280;21655;46.056;13.616;2023-05-24T02:24:14;100191.88;;;17.09;100.00
35551;BME280;21655;46.056;13.616;2023-05-24T02:26:40;100186.03;;;17.10;100.00
35551;BME280;21655;46.056;13.616;2023-05-24T02:29:06;100181.97;;;17.06;100.00
35551;BME280;21655;46.056;13.616;2023-05-24T02:31:31;100183.22;;;17.10;100.00
35551;BME280;21655;46.056;13.616;2023-05-24T02:33:57;100181.94;;;17.13;100.00
35551;BME280;21655;46.056;13.616;2023-05-24T02:36:23;100184.28;;;17.16;100.00
35551;BME280;21655;46.056;13.616;2023-05-24T02:38:51;100185.16;;;17.16;100.00
35551;BME280;21655;46.056;13.616;2023-05-24T02:41:17;100187.25;;;17.21;100.00
35551;BME280;21655;46.056;13.616;2023-05-24T02:43:44;100181.00;;;17.19;100.00
35551;BME280;21655;46.056;13.616;2023-05-24T02:46:09;100190.16;;;17.08;100.00
35551;BME280;21655;46.056;13.616;2023-05-24T02:48:35;100174.88;;;17.04;100.00
35551;BME280;21655;46.056;13.616;2023-05-24T02:51:01;100183.13;;;16.93;100.00
35551;BME280;21655;46.056;13.616;2023-05-24T02:53:28;100183.09;;;16.99;100.00
35551;BME280;21655;46.056;13.616;2023-05-24T02:55:53;100179.16;;;17.06;100.00
35551;BME280;21655;46.056;13.616;2023-05-24T02:58:19;100179.81;;;17.08;100.00
35551;BME280;21655;46.056;13.616;2023-05-24T03:00:44;100182.84;;;17.07;100.00
35551;BME280;21655;46.056;13.616;2023-05-24T03:03:10;100179.13;;;17.13;100.00
35551;BME280;21655;46.056;13.616;2023-05-24T03:05:35;100174.19;;;17.08;100.00
35551;BME280;21655;46.056;13.616;2023-05-24T03:08:01;100174.06;;;16.97;100.00
35551;BME280;21655;46.056;13.616;2023-05-24T03:10:26;100174.50;;;17.01;100.00
35551;BME280;21655;46.056;13.616;2023-05-24T03:12:51;100183.06;;;17.05;100.00
35551;BME280;21655;46.056;13.616;2023-05-24T03:15:17;100178.81;;;16.97;100.00
35551;BME280;21655;46.056;13.616;2023-05-24T03:17:43;100175.63;;;16.93;100.00
35551;BME280;21655;46.056;13.616;2023-05-24T03:20:08;100176.31;;;16.82;100.00
35551;BME280;21655;46.056;13.616;2023-05-24T03:22:35;100175.69;;;16.80;100.00
35551;BME280;21655;46.056;13.616;2023-05-24T03:25:01;100176.13;;;16.84;100.00
35551;BME280;21655;46.056;13.616;2023-05-24T03:27:26;100179.13;;;16.82;100.00
35551;BME280;21655;46.056;13.616;2023-05-24T03:29:52;100181.28;;;16.80;100.00
35551;BME280;21655;46.056;13.616;2023-05-24T03:32:17;100186.22;;;16.85;100.00
35551;BME280;21655;46.056;13.616;2023-05-24T03:34:42;100184.69;;;16.89;100.00
35551;BME280;21655;46.056;13.616;2023-05-24T03:37:08;100193.09;;;16.89;100.00
35551;BME280;21655;46.056;13.616;2023-05-24T03:39:33;100198.66;;;16.58;100.00
35551;BME280;21655;46.056;13.616;2023-05-24T03:41:59;100188.91;;;16.67;100.00
35551;BME280;21655;46.056;13.616;2023-05-24T03:44:25;100200.13;;;16.67;100.00
35551;BME280;21655;46.056;13.616;2023-05-24T03:46:50;100208.41;;;16.80;100.00
35551;BME280;21655;46.056;13.616;2023-05-24T03:49:15;100199.81;;;16.81;100.00
35551;BME280;21655;46.056;13.616;2023-05-24T03:51:41;100197.00;;;16.81;100.00
35551;BME280;21655;46.056;13.616;2023-05-24T03:54:06;100192.91;;;16.84;100.00
35551;BME280;21655;46.056;13.616;2023-05-24T03:56:32;100201.09;;;16.79;100.00
35551;BME280;21655;46.056;13.616;2023-05-24T03:58:57;100203.63;;;16.93;100.00
35551;BME280;21655;46.056;13.616;2023-05-24T04:01:24;100199.75;;;16.94;100.00
35551;BME280;21655;46.056;13.616;2023-05-24T04:03:50;100197.19;;;16.86;100.00
35551;BME280;21655;46.056;13.616;2023-05-24T04:06:16;100201.31;;;16.84;100.00
35551;BME280;21655;46.056;13.616;2023-05-24T04:08:42;100197.41;;;16.91;100.00
35551;BME280;21655;46.056;13.616;2023-05-24T04:11:08;100208.97;;;16.95;100.00
35551;BME280;21655;46.056;13.616;2023-05-24T04:13:33;100194.13;;;16.94;100.00
35551;BME280;21655;46.056;13.616;2023-05-24T04:15:59;100200.88;;;16.87;100.00
35551;BME280;21655;46.056;13.616;2023-05-24T04:18:25;100186.41;;;16.90;100.00
35551;BME280;21655;46.056;13.616;2023-05-24T04:20:50;100193.59;;;17.10;100.00
35551;BME280;21655;46.056;13.616;2023-05-24T04:23:16;100194.59;;;17.22;100.00
35551;BME280;21655;46.056;13.616;2023-05-24T04:25:41;100186.75;;;17.30;100.00
35551;BME280;21655;46.056;13.616;2023-05-24T04:28:07;100196.94;;;17.25;100.00
35551;BME280;21655;46.056;13.616;2023-05-24T04:30:33;100205.50;;;16.99;100.00
35551;BME280;21655;46.056;13.616;2023-05-24T04:33:00;100199.16;;;16.86;100.00
35551;BME280;21655;46.056;13.616;2023-05-24T04:35:27;100217.63;;;16.49;100.00
35551;BME280;21655;46.056;13.616;2023-05-24T04:37:54;100210.50;;;16.53;100.00
35551;BME280;21655;46.056;13.616;2023-05-24T04:40:19;100210.25;;;16.68;100.00
35551;BME280;21655;46.056;13.616;2023-05-24T04:42:45;100214.97;;;16.67;100.00
35551;BME280;21655;46.056;13.616;2023-05-24T04:45:11;100219.22;;;16.83;100.00
35551;BME280;21655;46.056;13.616;2023-05-24T04:47:36;100230.41;;;16.83;100.00
35551;BME280;21655;46.056;13.616;2023-05-24T04:50:02;100229.22;;;16.66;100.00
35551;BME280;21655;46.056;13.616;2023-05-24T04:52:27;100235.16;;;16.76;100.00
35551;BME280;21655;46.056;13.616;2023-05-24T04:54:54;100237.25;;;16.93;100.00
35551;BME280;21655;46.056;13.616;2023-05-24T04:57:22;100247.09;;;17.02;100.00
35551;BME280;21655;46.056;13.616;2023-05-24T04:59:47;100247.03;;;17.08;100.00
35551;BME280;21655;46.056;13.616;2023-05-24T05:02:13;100254.19;;;17.04;100.00
35551;BME280;21655;46.056;13.616;2023-05-24T05:04:38;100261.81;;;16.91;100.00
35551;BME280;21655;46.056;13.616;2023-05-24T05:07:04;100255.13;;;16.92;100.00
35551;BME280;21655;46.056;13.616;2023-05-24T05:09:29;100240.88;;;16.94;100.00
35551;BME280;21655;46.056;13.616;2023-05-24T05:11:54;100249.50;;;16.99;100.00
35551;BME280;21655;46.056;13.616;2023-05-24T05:14:20;100251.38;;;17.04;100.00
35551;BME280;21655;46.056;13.616;2023-05-24T05:16:45;100252.91;;;17.07;100.00
35551;BME280;21655;46.056;13.616;2023-05-24T05:19:11;100254.69;;;16.95;100.00
35551;BME280;21655;46.056;13.616;2023-05-24T05:21:36;100258.06;;;17.03;100.00
35551;BME280;21655;46.056;13.616;2023-05-24T05:24:04;100262.59;;;17.04;100.00
35551;BME280;21655;46.056;13.616;2023-05-24T05:26:29;100270.09;;;17.10;100.00
35551;BME280;21655;46.056;13.616;2023-05-24T05:28:56;100280.56;;;16.91;100.00
35551;BME280;21655;46.056;13.616;2023-05-24T05:31:22;100287.28;;;16.77;100.00
35551;BME280;21655;46.056;13.616;2023-05-24T05:33:48;100273.06;;;16.85;100.00
35551;BME280;21655;46.056;13.616;2023-05-24T05:36:14;100271.69;;;16.94;100.00
35551;BME280;21655;46.056;13.616;2023-05-24T05:38:40;100273.41;;;16.95;100.00
35551;BME280;21655;46.056;13.616;2023-05-24T05:41:05;100280.69;;;17.02;100.00
35551;BME280;21655;46.056;13.616;2023-05-24T05:43:31;100287.19;;;17.02;100.00
35551;BME280;21655;46.056;13.616;2023-05-24T05:45:56;100287.19;;;17.02;100.00
35551;BME280;21655;46.056;13.616;2023-05-24T05:48:22;100298.38;;;17.02;100.00
35551;BME280;21655;46.056;13.616;2023-05-24T05:50:47;100302.47;;;17.00;100.00
35551;BME280;21655;46.056;13.616;2023-05-24T05:53:14;100298.22;;;16.91;100.00
35551;BME280;21655;46.056;13.616;2023-05-24T05:55:40;100309.00;;;16.94;100.00
35551;BME280;21655;46.056;13.616;2023-05-24T05:58:05;100306.84;;;16.90;100.00
35551;BME280;21655;46.056;13.616;2023-05-24T06:00:31;100310.09;;;16.87;100.00
35551;BME280;21655;46.056;13.616;2023-05-24T06:02:56;100313.09;;;16.85;100.00
35551;BME280;21655;46.056;13.616;2023-05-24T06:05:21;100312.00;;;16.93;100.00
35551;BME280;21655;46.056;13.616;2023-05-24T06:07:47;100322.97;;;17.01;100.00
35551;BME280;21655;46.056;13.616;2023-05-24T06:10:12;100323.44;;;16.98;100.00
35551;BME280;21655;46.056;13.616;2023-05-24T06:12:38;100320.66;;;16.85;100.00
35551;BME280;21655;46.056;13.616;2023-05-24T06:15:05;100323.00;;;16.94;100.00
35551;BME280;21655;46.056;13.616;2023-05-24T06:17:32;100330.91;;;17.10;100.00
35551;BME280;21655;46.056;13.616;2023-05-24T06:19:58;100320.94;;;17.14;100.00
35551;BME280;21655;46.056;13.616;2023-05-24T06:22:24;100325.50;;;17.08;100.00
35551;BME280;21655;46.056;13.616;2023-05-24T06:24:52;100324.03;;;17.06;100.00
35551;BME280;21655;46.056;13.616;2023-05-24T06:27:17;100319.94;;;17.02;100.00
35551;BME280;21655;46.056;13.616;2023-05-24T06:29:43;100315.03;;;16.98;100.00
35551;BME280;21655;46.056;13.616;2023-05-24T06:32:08;100315.81;;;17.11;100.00
35551;BME280;21655;46.056;13.616;2023-05-24T06:34:34;100314.09;;;17.10;100.00
35551;BME280;21655;46.056;13.616;2023-05-24T06:36:59;100324.25;;;16.98;100.00
35551;BME280;21655;46.056;13.616;2023-05-24T06:39:26;100325.31;;;17.03;100.00
35551;BME280;21655;46.056;13.616;2023-05-24T06:41:52;100315.56;;;17.12;100.00
35551;BME280;21655;46.056;13.616;2023-05-24T06:44:18;100311.72;;;17.13;100.00
35551;BME280;21655;46.056;13.616;2023-05-24T06:46:43;100305.88;;;17.08;100.00
35551;BME280;21655;46.056;13.616;2023-05-24T06:49:10;100300.50;;;17.13;100.00
35551;BME280;21655;46.056;13.616;2023-05-24T06:51:36;100306.03;;;17.20;100.00
35551;BME280;21655;46.056;13.616;2023-05-24T06:54:02;100294.81;;;17.20;100.00
35551;BME280;21655;46.056;13.616;2023-05-24T06:56:28;100295.03;;;17.25;100.00
35551;BME280;21655;46.056;13.616;2023-05-24T06:58:54;100303.16;;;17.33;100.00
35551;BME280;21655;46.056;13.616;2023-05-24T07:01:20;100301.22;;;17.33;100.00
35551;BME280;21655;46.056;13.616;2023-05-24T07:03:46;100301.03;;;17.28;100.00
35551;BME280;21655;46.056;13.616;2023-05-24T07:06:11;100299.72;;;17.31;100.00
35551;BME280;21655;46.056;13.616;2023-05-24T07:08:39;100295.19;;;17.36;100.00
35551;BME280;21655;46.056;13.616;2023-05-24T07:11:05;100300.34;;;17.39;100.00
35551;BME280;21655;46.056;13.616;2023-05-24T07:13:32;100296.84;;;17.50;100.00
35551;BME280;21655;46.056;13.616;2023-05-24T07:15:57;100305.16;;;17.63;100.00
35551;BME280;21655;46.056;13.616;2023-05-24T07:18:23;100300.06;;;17.78;100.00
35551;BME280;21655;46.056;13.616;2023-05-24T07:20:48;100301.19;;;17.95;100.00
35551;BME280;21655;46.056;13.616;2023-05-24T07:23:13;100304.75;;;18.09;100.00
35551;BME280;21655;46.056;13.616;2023-05-24T07:25:39;100309.53;;;18.26;100.00
35551;BME280;21655;46.056;13.616;2023-05-24T07:28:04;100308.34;;;18.16;100.00
35551;BME280;21655;46.056;13.616;2023-05-24T07:30:30;100311.06;;;18.04;100.00
35551;BME280;21655;46.056;13.616;2023-05-24T07:32:55;100311.06;;;18.04;100.00
35551;BME280;21655;46.056;13.616;2023-05-24T07:35:21;100310.44;;;18.02;100.00
35551;BME280;21655;46.056;13.616;2023-05-24T07:37:48;100316.63;;;18.11;100.00
35551;BME280;21655;46.056;13.616;2023-05-24T07:40:13;100316.41;;;18.12;100.00
35551;BME280;21655;46.056;13.616;2023-05-24T07:42:39;100312.81;;;18.23;100.00
35551;BME280;21655;46.056;13.616;2023-05-24T07:45:06;100307.81;;;18.25;100.00
35551;BME280;21655;46.056;13.616;2023-05-24T07:47:33;100317.81;;;18.21;100.00
35551;BME280;21655;46.056;13.616;2023-05-24T07:49:59;100317.59;;;18.23;100.00
35551;BME280;21655;46.056;13.616;2023-05-24T07:52:24;100312.41;;;18.20;100.00
35551;BME280;21655;46.056;13.616;2023-05-24T07:54:50;100304.81;;;18.27;100.00
35551;BME280;21655;46.056;13.616;2023-05-24T07:57:17;100297.44;;;18.32;100.00
35551;BME280;21655;46.056;13.616;2023-05-24T07:59:43;100298.75;;;18.30;100.00
35551;BME280;21655;46.056;13.616;2023-05-24T08:02:08;100292.91;;;18.31;100.00
35551;BME280;21655;46.056;13.616;2023-05-24T08:04:36;100291.75;;;18.39;100.00
35551;BME280;21655;46.056;13.616;2023-05-24T08:07:01;100296.22;;;18.46;100.00
35551;BME280;21655;46.056;13.616;2023-05-24T08:09:27;100292.25;;;18.54;100.00
35551;BME280;21655;46.056;13.616;2023-05-24T08:11:54;100298.91;;;18.53;100.00
35551;BME280;21655;46.056;13.616;2023-05-24T08:14:21;100302.75;;;18.58;100.00
35551;BME280;21655;46.056;13.616;2023-05-24T08:16:46;100301.28;;;18.56;100.00
35551;BME280;21655;46.056;13.616;2023-05-24T08:19:11;100304.19;;;18.67;100.00
35551;BME280;21655;46.056;13.616;2023-05-24T08:21:37;100297.84;;;18.72;100.00
35551;BME280;21655;46.056;13.616;2023-05-24T08:24:02;100293.97;;;18.73;100.00
35551;BME280;21655;46.056;13.616;2023-05-24T08:26:28;100304.56;;;18.89;100.00
35551;BME280;21655;46.056;13.616;2023-05-24T08:28:53;100311.03;;;18.89;100.00
35551;BME280;21655;46.056;13.616;2023-05-24T08:31:19;100306.97;;;18.85;100.00
35551;BME280;21655;46.056;13.616;2023-05-24T08:33:46;100311.97;;;18.83;100.00
35551;BME280;21655;46.056;13.616;2023-05-24T08:36:14;100306.03;;;18.91;100.00
35551;BME280;21655;46.056;13.616;2023-05-24T08:38:40;100316.34;;;18.97;100.00
35551;BME280;21655;46.056;13.616;2023-05-24T08:41:06;100328.44;;;18.98;100.00
35551;BME280;21655;46.056;13.616;2023-05-24T08:43:32;100328.56;;;19.02;100.00
35551;BME280;21655;46.056;13.616;2023-05-24T08:46:00;100333.50;;;18.89;100.00
35551;BME280;21655;46.056;13.616;2023-05-24T08:48:27;100334.44;;;19.01;100.00
35551;BME280;21655;46.056;13.616;2023-05-24T08:50:52;100349.19;;;19.14;100.00
35551;BME280;21655;46.056;13.616;2023-05-24T08:53:19;100344.03;;;19.11;100.00
35551;BME280;21655;46.056;13.616;2023-05-24T08:55:47;100342.25;;;18.99;100.00
35551;BME280;21655;46.056;13.616;2023-05-24T08:58:14;100353.09;;;19.13;100.00
35551;BME280;21655;46.056;13.616;2023-05-24T09:00:40;100371.88;;;19.19;100.00
35551;BME280;21655;46.056;13.616;2023-05-24T09:03:06;100367.78;;;19.33;100.00
35551;BME280;21655;46.056;13.616;2023-05-24T09:05:32;100366.75;;;19.46;100.00
35551;BME280;21655;46.056;13.616;2023-05-24T09:07:59;100367.06;;;19.38;100.00
35551;BME280;21655;46.056;13.616;2023-05-24T09:10:25;100361.63;;;19.72;100.00
35551;BME280;21655;46.056;13.616;2023-05-24T09:12:57;100372.03;;;19.83;100.00
35551;BME280;21655;46.056;13.616;2023-05-24T09:15:22;100358.56;;;20.03;100.00
35551;BME280;21655;46.056;13.616;2023-05-24T09:17:48;100356.00;;;20.25;100.00
35551;BME280;21655;46.056;13.616;2023-05-24T09:20:13;100357.13;;;20.70;100.00
35551;BME280;21655;46.056;13.616;2023-05-24T09:22:42;100361.56;;;20.54;100.00
35551;BME280;21655;46.056;13.616;2023-05-24T09:25:09;100351.50;;;21.04;100.00
35551;BME280;21655;46.056;13.616;2023-05-24T09:27:37;100352.63;;;21.42;100.00
35551;BME280;21655;46.056;13.616;2023-05-24T09:30:07;100343.03;;;21.83;100.00
35551;BME280;21655;46.056;13.616;2023-05-24T09:32:34;100347.63;;;22.17;100.00
35551;BME280;21655;46.056;13.616;2023-05-24T09:34:59;100337.22;;;22.22;100.00
35551;BME280;21655;46.056;13.616;2023-05-24T09:37:25;100329.81;;;22.33;100.00
35551;BME280;21655;46.056;13.616;2023-05-24T09:39:52;100332.88;;;22.48;100.00
35551;BME280;21655;46.056;13.616;2023-05-24T09:42:21;100340.72;;;22.57;100.00
35551;BME280;21655;46.056;13.616;2023-05-24T09:45:06;100345.31;;;22.47;100.00
35551;BME280;21655;46.056;13.616;2023-05-24T09:47:38;100338.13;;;22.56;100.00
35551;BME280;21655;46.056;13.616;2023-05-24T09:50:05;100338.13;;;22.39;100.00
35551;BME280;21655;46.056;13.616;2023-05-24T09:52:35;100328.88;;;22.27;100.00
35551;BME280;21655;46.056;13.616;2023-05-24T09:55:12;100338.94;;;22.07;100.00
35551;BME280;21655;46.056;13.616;2023-05-24T09:57:37;100331.66;;;21.94;100.00
35551;BME280;21655;46.056;13.616;2023-05-24T10:00:07;100339.31;;;21.54;100.00
35551;BME280;21655;46.056;13.616;2023-05-24T10:02:44;100337.00;;;21.51;100.00
35551;BME280;21655;46.056;13.616;2023-05-24T10:05:10;100324.25;;;21.77;100.00
35551;BME280;21655;46.056;13.616;2023-05-24T10:07:36;100314.88;;;21.88;100.00
35551;BME280;21655;46.056;13.616;2023-05-24T10:10:04;100316.84;;;22.20;100.00
35551;BME280;21655;46.056;13.616;2023-05-24T10:12:30;100303.97;;;22.41;100.00
35551;BME280;21655;46.056;13.616;2023-05-24T10:14:58;100303.66;;;22.75;100.00
35551;BME280;21655;46.056;13.616;2023-05-24T10:17:24;100300.56;;;22.77;100.00
35551;BME280;21655;46.056;13.616;2023-05-24T10:19:53;100291.94;;;22.88;100.00
35551;BME280;21655;46.056;13.616;2023-05-24T10:22:19;100290.19;;;23.03;100.00
35551;BME280;21655;46.056;13.616;2023-05-24T10:24:49;100287.16;;;23.10;100.00
35551;BME280;21655;46.056;13.616;2023-05-24T10:27:22;100281.59;;;23.15;100.00
35551;BME280;21655;46.056;13.616;2023-05-24T10:29:58;100279.72;;;23.47;100.00
35551;BME280;21655;46.056;13.616;2023-05-24T10:32:26;100272.66;;;23.97;100.00
35551;BME280;21655;46.056;13.616;2023-05-24T10:34:57;100277.09;;;24.98;100.00
35551;BME280;21655;46.056;13.616;2023-05-24T10:37:24;100268.56;;;24.93;100.00
35551;BME280;21655;46.056;13.616;2023-05-24T10:39:50;100258.00;;;24.42;100.00
35551;BME280;21655;46.056;13.616;2023-05-24T10:42:16;100267.13;;;24.95;100.00
35551;BME280;21655;46.056;13.616;2023-05-24T10:44:42;100257.00;;;24.58;100.00
35551;BME280;21655;46.056;13.616;2023-05-24T10:47:12;100248.38;;;24.89;100.00
35551;BME280;21655;46.056;13.616;2023-05-24T10:49:47;100243.41;;;24.28;100.00
35551;BME280;21655;46.056;13.616;2023-05-24T10:52:12;100240.50;;;24.96;100.00
35551;BME280;21655;46.056;13.616;2023-05-24T10:54:38;100245.72;;;25.24;100.00
35551;BME280;21655;46.056;13.616;2023-05-24T10:57:05;100232.56;;;25.03;100.00
35551;BME280;21655;46.056;13.616;2023-05-24T10:59:35;100226.25;;;24.91;100.00
35551;BME280;21655;46.056;13.616;2023-05-24T11:02:08;100228.84;;;24.51;100.00
35551;BME280;21655;46.056;13.616;2023-05-24T11:04:44;100208.72;;;24.11;100.00
35551;BME280;21655;46.056;13.616;2023-05-24T11:07:12;100208.59;;;24.33;100.00
35551;BME280;21655;46.056;13.616;2023-05-24T11:09:39;100211.78;;;24.46;100.00
35551;BME280;21655;46.056;13.616;2023-05-24T11:12:16;100208.56;;;24.28;100.00
35551;BME280;21655;46.056;13.616;2023-05-24T11:14:50;100191.38;;;25.01;100.00
35551;BME280;21655;46.056;13.616;2023-05-24T11:17:20;100189.16;;;25.17;100.00
35551;BME280;21655;46.056;13.616;2023-05-24T11:19:50;100195.09;;;25.06;100.00
35551;BME280;21655;46.056;13.616;2023-05-24T11:22:18;100191.22;;;25.22;100.00
35551;BME280;21655;46.056;13.616;2023-05-24T11:24:45;100180.41;;;25.19;100.00
35551;BME280;21655;46.056;13.616;2023-05-24T11:27:12;100192.13;;;25.47;100.00
35551;BME280;21655;46.056;13.616;2023-05-24T11:29:42;100181.91;;;25.61;100.00
35551;BME280;21655;46.056;13.616;2023-05-24T11:32:08;100181.66;;;25.68;100.00
35551;BME280;21655;46.056;13.616;2023-05-24T11:34:35;100170.59;;;25.86;100.00
35551;BME280;21655;46.056;13.616;2023-05-24T11:37:01;100179.66;;;25.83;100.00
35551;BME280;21655;46.056;13.616;2023-05-24T11:39:31;100168.91;;;25.90;100.00
35551;BME280;21655;46.056;13.616;2023-05-24T11:41:58;100167.47;;;25.98;100.00
35551;BME280;21655;46.056;13.616;2023-05-24T11:44:24;100174.88;;;25.99;100.00
35551;BME280;21655;46.056;13.616;2023-05-24T11:46:56;100174.81;;;26.34;100.00
35551;BME280;21655;46.056;13.616;2023-05-24T11:49:22;100162.31;;;26.30;100.00
35551;BME280;21655;46.056;13.616;2023-05-24T11:51:47;100168.00;;;26.30;100.00
35551;BME280;21655;46.056;13.616;2023-05-24T11:54:13;100156.63;;;26.20;100.00
35551;BME280;21655;46.056;13.616;2023-05-24T11:56:38;100156.88;;;26.43;100.00
35551;BME280;21655;46.056;13.616;2023-05-24T11:59:15;100148.63;;;26.42;100.00
35551;BME280;21655;46.056;13.616;2023-05-24T12:01:42;100149.16;;;26.59;100.00
35551;BME280;21655;46.056;13.616;2023-05-24T12:04:08;100149.13;;;26.69;100.00
35551;BME280;21655;46.056;13.616;2023-05-24T12:06:36;100141.13;;;26.76;100.00
35551;BME280;21655;46.056;13.616;2023-05-24T12:09:01;100140.16;;;27.00;100.00
35551;BME280;21655;46.056;13.616;2023-05-24T12:11:30;100138.91;;;27.26;100.00
35551;BME280;21655;46.056;13.616;2023-05-24T12:13:57;100123.03;;;27.15;100.00
35551;BME280;21655;46.056;13.616;2023-05-24T12:16:22;100129.25;;;27.22;100.00
35551;BME280;21655;46.056;13.616;2023-05-24T12:18:50;100122.25;;;27.00;100.00
35551;BME280;21655;46.056;13.616;2023-05-24T12:21:16;100116.81;;;27.03;100.00
35551;BME280;21655;46.056;13.616;2023-05-24T12:23:41;100114.28;;;26.92;100.00
35551;BME280;21655;46.056;13.616;2023-05-24T12:26:07;100112.66;;;26.76;100.00
35551;BME280;21655;46.056;13.616;2023-05-24T12:28:33;100109.00;;;26.75;100.00
35551;BME280;21655;46.056;13.616;2023-05-24T12:31:03;100111.28;;;26.68;100.00
35551;BME280;21655;46.056;13.616;2023-05-24T12:33:30;100109.78;;;27.34;100.00
35551;BME280;21655;46.056;13.616;2023-05-24T12:35:56;100099.97;;;27.50;100.00
35551;BME280;21655;46.056;13.616;2023-05-24T12:38:23;100093.56;;;27.73;100.00
35551;BME280;21655;46.056;13.616;2023-05-24T12:40:52;100083.47;;;27.85;100.00
35551;BME280;21655;46.056;13.616;2023-05-24T12:43:19;100078.66;;;27.81;100.00
35551;BME280;21655;46.056;13.616;2023-05-24T12:45:45;100082.75;;;27.70;100.00
35551;BME280;21655;46.056;13.616;2023-05-24T12:48:12;100080.75;;;27.37;100.00